sensor_id;sensor_type;location;lat;lon;timestamp;P1;durP1;ratioP1;P2;durP2;ratioP2
11642;SDS011;5877;50.930;6.918;2024-02-16T00:04:30;4.47;;;1.90;;
11642;SDS011;5877;50.930;6.918;2024-02-16T00:14:13;3.63;;;1.85;;
11642;SDS011;5877;50.930;6.918;2024-02-16T00:23:57;3.35;;;1.80;;
11642;SDS011;5877;50.930;6.918;2024-02-16T00:33:41;3.70;;;1.77;;
11642;SDS011;5877;50.930;6.918;2024-02-16T00:43:23;3.43;;;1.70;;
11642;SDS011;5877;50.930;6.918;2024-02-16T00:53:05;3.33;;;1.67;;
11642;SDS011;5877;50.930;6.918;2024-02-16T01:02:48;5.15;;;1.75;;
11642;SDS011;5877;50.930;6.918;2024-02-16T01:12:32;3.20;;;1.67;;
11642;SDS011;5877;50.930;6.918;2024-02-16T01:22:15;3.10;;;1.73;;
11642;SDS011;5877;50.930;6.918;2024-02-16T01:31:58;2.05;;;1.60;;
11642;SDS011;5877;50.930;6.918;2024-02-16T01:41:41;3.50;;;1.73;;
11642;SDS011;5877;50.930;6.918;2024-02-16T01:51:23;2.67;;;1.70;;
11642;SDS011;5877;50.930;6.918;2024-02-16T02:01:07;3.83;;;1.60;;
11642;SDS011;5877;50.930;6.918;2024-02-16T02:10:49;4.20;;;1.60;;
11642;SDS011;5877;50.930;6.918;2024-02-16T02:20:35;2.70;;;1.90;;
11642;SDS011;5877;50.930;6.918;2024-02-16T02:30:18;2.72;;;1.60;;
11642;SDS011;5877;50.930;6.918;2024-02-16T02:40:02;2.50;;;1.50;;
11642;SDS011;5877;50.930;6.918;2024-02-16T02:49:48;3.13;;;1.83;;
11642;SDS011;5877;50.930;6.918;2024-02-16T02:59:30;3.70;;;1.80;;
11642;SDS011;5877;50.930;6.918;2024-02-16T03:09:12;4.00;;;1.92;;
11642;SDS011;5877;50.930;6.918;2024-02-16T03:18:55;3.60;;;1.80;;
11642;SDS011;5877;50.930;6.918;2024-02-16T03:28:38;3.03;;;1.80;;
11642;SDS011;5877;50.930;6.918;2024-02-16T03:38:20;3.47;;;2.03;;
11642;SDS011;5877;50.930;6.918;2024-02-16T03:48:03;4.83;;;1.90;;
11642;SDS011;5877;50.930;6.918;2024-02-16T03:57:50;2.97;;;2.00;;
11642;SDS011;5877;50.930;6.918;2024-02-16T04:07:32;5.15;;;2.03;;
11642;SDS011;5877;50.930;6.918;2024-02-16T04:17:15;3.80;;;2.10;;
11642;SDS011;5877;50.930;6.918;2024-02-16T04:26:57;4.80;;;2.17;;
11642;SDS011;5877;50.930;6.918;2024-02-16T04:36:40;3.30;;;2.20;;
11642;SDS011;5877;50.930;6.918;2024-02-16T04:46:22;2.70;;;2.00;;
11642;SDS011;5877;50.930;6.918;2024-02-16T04:56:04;4.65;;;2.15;;
11642;SDS011;5877;50.930;6.918;2024-02-16T05:05:47;4.27;;;2.20;;
11642;SDS011;5877;50.930;6.918;2024-02-16T05:15:29;3.73;;;2.17;;
11642;SDS011;5877;50.930;6.918;2024-02-16T05:25:13;4.85;;;2.45;;
11642;SDS011;5877;50.930;6.918;2024-02-16T05:34:55;5.13;;;2.15;;
11642;SDS011;5877;50.930;6.918;2024-02-16T05:44:40;3.97;;;2.20;;
11642;SDS011;5877;50.930;6.918;2024-02-16T05:54:27;4.00;;;2.17;;
11642;SDS011;5877;50.930;6.918;2024-02-16T06:04:21;5.07;;;2.30;;
11642;SDS011;5877;50.930;6.918;2024-02-16T06:14:03;3.70;;;2.10;;
11642;SDS011;5877;50.930;6.918;2024-02-16T06:23:45;4.50;;;2.40;;
11642;SDS011;5877;50.930;6.918;2024-02-16T06:33:28;5.20;;;2.50;;
11642;SDS011;5877;50.930;6.918;2024-02-16T06:43:15;3.83;;;2.30;;
11642;SDS011;5877;50.930;6.918;2024-02-16T06:53:12;3.85;;;2.40;;
11642;SDS011;5877;50.930;6.918;2024-02-16T07:02:54;4.07;;;2.50;;
11642;SDS011;5877;50.930;6.918;2024-02-16T07:12:37;3.92;;;2.40;;
11642;SDS011;5877;50.930;6.918;2024-02-16T07:22:19;3.33;;;2.47;;
11642;SDS011;5877;50.930;6.918;2024-02-16T07:32:01;4.20;;;2.10;;
11642;SDS011;5877;50.930;6.918;2024-02-16T07:41:45;3.92;;;2.60;;
11642;SDS011;5877;50.930;6.918;2024-02-16T07:51:27;6.38;;;2.40;;
11642;SDS011;5877;50.930;6.918;2024-02-16T08:01:15;4.47;;;2.53;;
11642;SDS011;5877;50.930;6.918;2024-02-16T08:10:57;5.45;;;2.60;;
11642;SDS011;5877;50.930;6.918;2024-02-16T08:20:40;5.63;;;2.47;;
11642;SDS011;5877;50.930;6.918;2024-02-16T08:30:22;4.63;;;2.40;;
11642;SDS011;5877;50.930;6.918;2024-02-16T08:40:05;4.97;;;2.78;;
11642;SDS011;5877;50.930;6.918;2024-02-16T08:49:49;5.97;;;2.67;;
11642;SDS011;5877;50.930;6.918;2024-02-16T08:59:32;4.10;;;2.50;;
11642;SDS011;5877;50.930;6.918;2024-02-16T09:09:16;4.55;;;2.30;;
11642;SDS011;5877;50.930;6.918;2024-02-16T09:18:59;6.97;;;2.50;;
11642;SDS011;5877;50.930;6.918;2024-02-16T09:28:41;5.95;;;2.50;;
11642;SDS011;5877;50.930;6.918;2024-02-16T09:38:46;4.88;;;2.70;;
11642;SDS011;5877;50.930;6.918;2024-02-16T09:48:28;6.20;;;2.67;;
11642;SDS011;5877;50.930;6.918;2024-02-16T09:58:16;6.10;;;3.00;;
11642;SDS011;5877;50.930;6.918;2024-02-16T10:08:00;4.20;;;2.40;;
11642;SDS011;5877;50.930;6.918;2024-02-16T10:17:59;5.33;;;2.93;;
11642;SDS011;5877;50.930;6.918;2024-02-16T10:27:46;5.20;;;2.53;;
11642;SDS011;5877;50.930;6.918;2024-02-16T10:37:29;6.43;;;2.95;;
11642;SDS011;5877;50.930;6.918;2024-02-16T10:47:39;6.57;;;3.40;;
11642;SDS011;5877;50.930;6.918;2024-02-16T10:57:23;8.30;;;3.65;;
11642;SDS011;5877;50.930;6.918;2024-02-16T11:07:11;5.80;;;3.20;;
11642;SDS011;5877;50.930;6.918;2024-02-16T11:16:54;6.70;;;3.40;;
11642;SDS011;5877;50.930;6.918;2024-02-16T11:26:42;6.83;;;3.30;;
11642;SDS011;5877;50.930;6.918;2024-02-16T11:36:25;6.72;;;3.10;;
11642;SDS011;5877;50.930;6.918;2024-02-16T11:46:13;7.03;;;3.00;;
11642;SDS011;5877;50.930;6.918;2024-02-16T11:55:57;8.45;;;3.30;;
11642;SDS011;5877;50.930;6.918;2024-02-16T12:05:49;8.97;;;4.10;;
11642;SDS011;5877;50.930;6.918;2024-02-16T12:15:34;7.93;;;4.10;;
11642;SDS011;5877;50.930;6.918;2024-02-16T12:25:18;7.67;;;3.50;;
11642;SDS011;5877;50.930;6.918;2024-02-16T12:35:00;6.70;;;3.13;;
11642;SDS011;5877;50.930;6.918;2024-02-16T12:44:43;5.90;;;2.70;;
11642;SDS011;5877;50.930;6.918;2024-02-16T12:54:25;6.67;;;3.03;;
11642;SDS011;5877;50.930;6.918;2024-02-16T13:04:07;6.60;;;3.30;;
11642;SDS011;5877;50.930;6.918;2024-02-16T13:13:49;4.57;;;3.33;;
11642;SDS011;5877;50.930;6.918;2024-02-16T13:23:32;6.78;;;3.05;;
11642;SDS011;5877;50.930;6.918;2024-02-16T13:33:15;6.57;;;2.88;;
11642;SDS011;5877;50.930;6.918;2024-02-16T13:42:59;5.67;;;3.00;;
11642;SDS011;5877;50.930;6.918;2024-02-16T13:52:43;4.70;;;2.80;;
11642;SDS011;5877;50.930;6.918;2024-02-16T14:02:26;5.18;;;2.85;;
11642;SDS011;5877;50.930;6.918;2024-02-16T14:12:11;7.07;;;3.20;;
11642;SDS011;5877;50.930;6.918;2024-02-16T14:21:54;4.95;;;3.15;;
11642;SDS011;5877;50.930;6.918;2024-02-16T14:31:36;5.53;;;3.40;;
11642;SDS011;5877;50.930;6.918;2024-02-16T14:41:18;5.03;;;3.03;;
11642;SDS011;5877;50.930;6.918;2024-02-16T14:51:03;7.22;;;5.00;;
11642;SDS011;5877;50.930;6.918;2024-02-16T15:00:47;6.57;;;3.50;;
11642;SDS011;5877;50.930;6.918;2024-02-16T15:10:29;5.65;;;3.42;;
11642;SDS011;5877;50.930;6.918;2024-02-16T15:20:11;4.95;;;3.75;;
11642;SDS011;5877;50.930;6.918;2024-02-16T15:29:54;5.80;;;3.70;;
11642;SDS011;5877;50.930;6.918;2024-02-16T15:39:36;5.20;;;3.70;;
11642;SDS011;5877;50.930;6.918;2024-02-16T15:49:19;4.57;;;3.80;;
11642;SDS011;5877;50.930;6.918;2024-02-16T15:59:03;5.17;;;4.50;;
11642;SDS011;5877;50.930;6.918;2024-02-16T16:08:45;5.23;;;3.60;;
11642;SDS011;5877;50.930;6.918;2024-02-16T16:18:27;4.23;;;3.20;;
11642;SDS011;5877;50.930;6.918;2024-02-16T16:28:15;2.60;;;2.40;;
11642;SDS011;5877;50.930;6.918;2024-02-16T16:37:58;2.63;;;2.43;;
11642;SDS011;5877;50.930;6.918;2024-02-16T16:47:42;5.65;;;5.10;;
11642;SDS011;5877;50.930;6.918;2024-02-16T16:57:25;3.40;;;3.10;;
11642;SDS011;5877;50.930;6.918;2024-02-16T17:07:09;4.25;;;3.85;;
11642;SDS011;5877;50.930;6.918;2024-02-16T17:16:51;4.17;;;3.40;;
11642;SDS011;5877;50.930;6.918;2024-02-16T17:26:34;4.93;;;4.43;;
11642;SDS011;5877;50.930;6.918;2024-02-16T17:36:16;4.70;;;3.90;;
11642;SDS011;5877;50.930;6.918;2024-02-16T17:46:01;4.60;;;4.10;;
11642;SDS011;5877;50.930;6.918;2024-02-16T17:55:45;4.20;;;3.80;;
11642;SDS011;5877;50.930;6.918;2024-02-16T18:05:27;5.03;;;4.60;;
11642;SDS011;5877;50.930;6.918;2024-02-16T18:15:09;6.17;;;5.57;;
11642;SDS011;5877;50.930;6.918;2024-02-16T18:24:51;6.77;;;6.13;;
11642;SDS011;5877;50.930;6.918;2024-02-16T18:34:34;8.40;;;7.60;;
11642;SDS011;5877;50.930;6.918;2024-02-16T18:44:16;9.23;;;8.33;;
11642;SDS011;5877;50.930;6.918;2024-02-16T18:53:59;10.67;;;9.57;;
11642;SDS011;5877;50.930;6.918;2024-02-16T19:03:41;9.50;;;8.70;;
11642;SDS011;5877;50.930;6.918;2024-02-16T19:13:23;8.38;;;7.40;;
11642;SDS011;5877;50.930;6.918;2024-02-16T19:23:06;7.13;;;6.53;;
11642;SDS011;5877;50.930;6.918;2024-02-16T19:32:54;6.10;;;5.50;;
11642;SDS011;5877;50.930;6.918;2024-02-16T19:42:37;4.57;;;4.18;;
11642;SDS011;5877;50.930;6.918;2024-02-16T19:52:19;3.55;;;3.25;;
11642;SDS011;5877;50.930;6.918;2024-02-16T20:02:04;3.50;;;3.20;;
11642;SDS011;5877;50.930;6.918;2024-02-16T20:11:46;3.77;;;3.47;;
11642;SDS011;5877;50.930;6.918;2024-02-16T20:21:28;5.13;;;4.40;;
11642;SDS011;5877;50.930;6.918;2024-02-16T20:31:10;4.93;;;4.43;;
11642;SDS011;5877;50.930;6.918;2024-02-16T20:40:54;6.40;;;5.80;;
11642;SDS011;5877;50.930;6.918;2024-02-16T20:50:39;7.30;;;6.60;;
11642;SDS011;5877;50.930;6.918;2024-02-16T21:00:21;12.80;;;11.57;;
11642;SDS011;5877;50.930;6.918;2024-02-16T21:10:06;10.70;;;9.63;;
11642;SDS011;5877;50.930;6.918;2024-02-16T21:19:48;12.23;;;11.13;;
11642;SDS011;5877;50.930;6.918;2024-02-16T21:29:31;12.38;;;11.23;;
11642;SDS011;5877;50.930;6.918;2024-02-16T21:39:13;14.05;;;12.68;;
11642;SDS011;5877;50.930;6.918;2024-02-16T21:48:58;15.13;;;13.73;;
11642;SDS011;5877;50.930;6.918;2024-02-16T21:58:44;16.80;;;15.10;;
11642;SDS011;5877;50.930;6.918;2024-02-16T22:08:26;17.13;;;15.43;;
11642;SDS011;5877;50.930;6.918;2024-02-16T22:18:09;18.23;;;16.33;;
11642;SDS011;5877;50.930;6.918;2024-02-16T22:27:51;17.77;;;16.07;;
11642;SDS011;5877;50.930;6.918;2024-02-16T22:37:34;20.58;;;18.48;;
11642;SDS011;5877;50.930;6.918;2024-02-16T22:47:19;18.87;;;16.97;;
11642;SDS011;5877;50.930;6.918;2024-02-16T22:57:01;21.27;;;19.07;;
11642;SDS011;5877;50.930;6.918;2024-02-16T23:06:43;17.30;;;15.47;;
11642;SDS011;5877;50.930;6.918;2024-02-16T23:16:26;15.45;;;13.18;;
11642;SDS011;5877;50.930;6.918;2024-02-16T23:26:35;13.95;;;11.55;;
11642;SDS011;5877;50.930;6.918;2024-02-16T23:36:22;11.90;;;10.70;;
11642;SDS011;5877;50.930;6.918;2024-02-16T23:46:58;16.33;;;13.40;;
11642;SDS011;5877;50.930;6.918;2024-02-16T23:57:33;13.93;;;11.00;;
